sensor_id;sensor_type;location;lat;lon;timestamp;temperature;humidity
25482;DHT22;13395;50.752;4.268;2022-08-03T00:01:40;21.60;99.90
25482;DHT22;13395;50.752;4.268;2022-08-03T00:04:07;21.50;99.90
25482;DHT22;13395;50.752;4.268;2022-08-03T00:06:33;21.50;99.90
25482;DHT22;13395;50.752;4.268;2022-08-03T00:08:59;21.50;99.90
25482;DHT22;13395;50.752;4.268;2022-08-03T00:11:25;21.50;99.90
25482;DHT22;13395;50.752;4.268;2022-08-03T00:13:51;21.50;99.90
25482;DHT22;13395;50.752;4.268;2022-08-03T00:16:17;21.50;99.90
25482;DHT22;13395;50.752;4.268;2022-08-03T00:18:43;21.40;99.90
25482;DHT22;13395;50.752;4.268;2022-08-03T00:21:08;21.40;99.90
25482;DHT22;13395;50.752;4.268;2022-08-03T00:23:34;21.30;99.90
25482;DHT22;13395;50.752;4.268;2022-08-03T00:26:00;21.30;99.90
25482;DHT22;13395;50.752;4.268;2022-08-03T00:28:26;21.30;99.90
25482;DHT22;13395;50.752;4.268;2022-08-03T00:30:52;21.30;99.90
25482;DHT22;13395;50.752;4.268;2022-08-03T00:33:18;21.20;99.90
25482;DHT22;13395;50.752;4.268;2022-08-03T00:35:43;21.00;99.90
25482;DHT22;13395;50.752;4.268;2022-08-03T00:38:09;21.00;99.90
25482;DHT22;13395;50.752;4.268;2022-08-03T00:40:35;20.90;99.90
25482;DHT22;13395;50.752;4.268;2022-08-03T00:43:04;20.90;99.90
25482;DHT22;13395;50.752;4.268;2022-08-03T00:45:34;20.80;99.90
25482;DHT22;13395;50.752;4.268;2022-08-03T00:48:00;20.70;99.90
25482;DHT22;13395;50.752;4.268;2022-08-03T00:50:27;20.50;99.90
25482;DHT22;13395;50.752;4.268;2022-08-03T00:52:55;20.50;99.90
25482;DHT22;13395;50.752;4.268;2022-08-03T00:55:21;20.50;99.90
25482;DHT22;13395;50.752;4.268;2022-08-03T00:57:47;20.60;99.90
25482;DHT22;13395;50.752;4.268;2022-08-03T01:00:15;20.50;99.90
25482;DHT22;13395;50.752;4.268;2022-08-03T01:02:41;20.50;99.90
25482;DHT22;13395;50.752;4.268;2022-08-03T01:05:07;20.50;99.90
25482;DHT22;13395;50.752;4.268;2022-08-03T01:08:02;20.60;99.90
25482;DHT22;13395;50.752;4.268;2022-08-03T01:10:52;20.50;99.90
25482;DHT22;13395;50.752;4.268;2022-08-03T01:13:33;20.50;99.90
25482;DHT22;13395;50.752;4.268;2022-08-03T01:18:51;20.30;99.90
25482;DHT22;13395;50.752;4.268;2022-08-03T01:21:32;20.20;99.90
25482;DHT22;13395;50.752;4.268;2022-08-03T01:31:57;20.30;99.90
25482;DHT22;13395;50.752;4.268;2022-08-03T01:34:34;20.30;99.90
25482;DHT22;13395;50.752;4.268;2022-08-03T01:37:02;20.20;99.90
25482;DHT22;13395;50.752;4.268;2022-08-03T01:39:32;20.20;99.90
25482;DHT22;13395;50.752;4.268;2022-08-03T01:42:01;20.20;99.90
25482;DHT22;13395;50.752;4.268;2022-08-03T01:44:34;20.10;99.90
25482;DHT22;13395;50.752;4.268;2022-08-03T01:47:02;20.20;99.90
25482;DHT22;13395;50.752;4.268;2022-08-03T01:49:30;20.10;99.90
25482;DHT22;13395;50.752;4.268;2022-08-03T01:51:57;20.00;99.90
25482;DHT22;13395;50.752;4.268;2022-08-03T01:54:25;20.00;99.90
25482;DHT22;13395;50.752;4.268;2022-08-03T01:56:53;20.00;99.90
25482;DHT22;13395;50.752;4.268;2022-08-03T01:59:21;20.00;99.90
25482;DHT22;13395;50.752;4.268;2022-08-03T02:01:48;19.90;99.90
25482;DHT22;13395;50.752;4.268;2022-08-03T02:04:17;19.90;99.90
25482;DHT22;13395;50.752;4.268;2022-08-03T02:06:45;19.80;99.90
25482;DHT22;13395;50.752;4.268;2022-08-03T02:09:12;19.80;99.90
25482;DHT22;13395;50.752;4.268;2022-08-03T02:11:39;19.80;99.90
25482;DHT22;13395;50.752;4.268;2022-08-03T02:14:07;19.80;99.90
25482;DHT22;13395;50.752;4.268;2022-08-03T02:16:34;19.80;99.90
25482;DHT22;13395;50.752;4.268;2022-08-03T02:19:03;19.70;99.90
25482;DHT22;13395;50.752;4.268;2022-08-03T02:21:32;19.70;99.90
25482;DHT22;13395;50.752;4.268;2022-08-03T02:24:00;19.50;99.90
25482;DHT22;13395;50.752;4.268;2022-08-03T02:26:28;19.50;99.90
25482;DHT22;13395;50.752;4.268;2022-08-03T02:28:55;19.60;99.90
25482;DHT22;13395;50.752;4.268;2022-08-03T02:31:24;19.60;99.90
25482;DHT22;13395;50.752;4.268;2022-08-03T02:33:53;19.50;99.90
25482;DHT22;13395;50.752;4.268;2022-08-03T02:36:23;19.60;99.90
25482;DHT22;13395;50.752;4.268;2022-08-03T02:38:53;19.60;99.90
25482;DHT22;13395;50.752;4.268;2022-08-03T02:41:24;19.60;99.90
25482;DHT22;13395;50.752;4.268;2022-08-03T02:43:53;19.50;99.90
25482;DHT22;13395;50.752;4.268;2022-08-03T02:46:24;19.40;99.90
25482;DHT22;13395;50.752;4.268;2022-08-03T02:48:53;19.40;99.90
25482;DHT22;13395;50.752;4.268;2022-08-03T02:51:20;19.30;99.90
25482;DHT22;13395;50.752;4.268;2022-08-03T02:53:47;19.30;99.90
25482;DHT22;13395;50.752;4.268;2022-08-03T02:56:13;19.30;99.90
25482;DHT22;13395;50.752;4.268;2022-08-03T02:58:42;19.20;99.90
25482;DHT22;13395;50.752;4.268;2022-08-03T03:01:08;19.20;99.90
25482;DHT22;13395;50.752;4.268;2022-08-03T03:03:35;19.20;99.90
25482;DHT22;13395;50.752;4.268;2022-08-03T03:06:01;19.20;99.90
25482;DHT22;13395;50.752;4.268;2022-08-03T03:08:27;19.20;99.90
25482;DHT22;13395;50.752;4.268;2022-08-03T03:10:58;19.10;99.90
25482;DHT22;13395;50.752;4.268;2022-08-03T03:13:27;19.00;99.90
25482;DHT22;13395;50.752;4.268;2022-08-03T03:15:53;19.10;99.90
25482;DHT22;13395;50.752;4.268;2022-08-03T03:18:21;19.20;99.90
25482;DHT22;13395;50.752;4.268;2022-08-03T03:20:49;19.10;99.90
25482;DHT22;13395;50.752;4.268;2022-08-03T03:23:16;19.00;99.90
25482;DHT22;13395;50.752;4.268;2022-08-03T03:25:42;18.80;99.90
25482;DHT22;13395;50.752;4.268;2022-08-03T03:28:09;18.90;99.90
25482;DHT22;13395;50.752;4.268;2022-08-03T03:30:35;19.00;99.90
25482;DHT22;13395;50.752;4.268;2022-08-03T03:33:01;19.00;99.90
25482;DHT22;13395;50.752;4.268;2022-08-03T03:35:27;18.90;99.90
25482;DHT22;13395;50.752;4.268;2022-08-03T03:37:53;19.00;99.90
25482;DHT22;13395;50.752;4.268;2022-08-03T03:40:21;19.00;99.90
25482;DHT22;13395;50.752;4.268;2022-08-03T03:42:48;19.00;99.90
25482;DHT22;13395;50.752;4.268;2022-08-03T03:45:14;18.90;99.90
25482;DHT22;13395;50.752;4.268;2022-08-03T03:47:40;19.00;99.90
25482;DHT22;13395;50.752;4.268;2022-08-03T03:50:06;18.90;99.90
25482;DHT22;13395;50.752;4.268;2022-08-03T03:52:33;18.90;99.90
25482;DHT22;13395;50.752;4.268;2022-08-03T03:54:59;18.90;99.90
25482;DHT22;13395;50.752;4.268;2022-08-03T03:57:24;18.90;99.90
25482;DHT22;13395;50.752;4.268;2022-08-03T03:59:50;18.90;99.90
25482;DHT22;13395;50.752;4.268;2022-08-03T04:02:16;18.80;99.90
25482;DHT22;13395;50.752;4.268;2022-08-03T04:04:42;18.70;99.90
25482;DHT22;13395;50.752;4.268;2022-08-03T04:07:26;18.70;99.90
25482;DHT22;13395;50.752;4.268;2022-08-03T04:10:22;18.70;99.90
25482;DHT22;13395;50.752;4.268;2022-08-03T04:13:09;18.70;99.90
25482;DHT22;13395;50.752;4.268;2022-08-03T04:15:38;18.70;99.90
25482;DHT22;13395;50.752;4.268;2022-08-03T04:18:07;18.60;99.90
25482;DHT22;13395;50.752;4.268;2022-08-03T04:20:36;18.70;99.90
25482;DHT22;13395;50.752;4.268;2022-08-03T04:23:03;18.80;99.90
25482;DHT22;13395;50.752;4.268;2022-08-03T04:25:32;18.90;99.90
25482;DHT22;13395;50.752;4.268;2022-08-03T04:28:00;18.70;99.90
25482;DHT22;13395;50.752;4.268;2022-08-03T04:30:27;18.90;99.90
25482;DHT22;13395;50.752;4.268;2022-08-03T04:32:55;18.90;99.90
25482;DHT22;13395;50.752;4.268;2022-08-03T04:35:23;18.80;99.90
25482;DHT22;13395;50.752;4.268;2022-08-03T04:37:51;18.80;99.90
25482;DHT22;13395;50.752;4.268;2022-08-03T04:40:29;18.60;99.90
25482;DHT22;13395;50.752;4.268;2022-08-03T04:42:58;18.70;99.90
25482;DHT22;13395;50.752;4.268;2022-08-03T04:45:26;18.70;99.90
25482;DHT22;13395;50.752;4.268;2022-08-03T04:47:52;18.70;99.90
25482;DHT22;13395;50.752;4.268;2022-08-03T04:50:19;18.70;99.90
25482;DHT22;13395;50.752;4.268;2022-08-03T04:52:44;18.70;99.90
25482;DHT22;13395;50.752;4.268;2022-08-03T04:55:10;18.70;99.90
25482;DHT22;13395;50.752;4.268;2022-08-03T04:57:36;18.60;99.90
25482;DHT22;13395;50.752;4.268;2022-08-03T05:00:03;18.70;99.90
25482;DHT22;13395;50.752;4.268;2022-08-03T05:02:30;18.80;99.90
25482;DHT22;13395;50.752;4.268;2022-08-03T05:04:56;18.80;99.90
25482;DHT22;13395;50.752;4.268;2022-08-03T05:07:25;19.10;99.90
25482;DHT22;13395;50.752;4.268;2022-08-03T05:09:51;19.60;99.90
25482;DHT22;13395;50.752;4.268;2022-08-03T05:12:16;20.20;99.90
25482;DHT22;13395;50.752;4.268;2022-08-03T05:14:42;20.70;99.90
25482;DHT22;13395;50.752;4.268;2022-08-03T05:17:08;21.40;99.90
25482;DHT22;13395;50.752;4.268;2022-08-03T05:19:34;22.10;99.90
25482;DHT22;13395;50.752;4.268;2022-08-03T05:22:00;22.50;99.90
25482;DHT22;13395;50.752;4.268;2022-08-03T05:24:26;23.00;99.90
25482;DHT22;13395;50.752;4.268;2022-08-03T05:26:52;23.50;99.90
25482;DHT22;13395;50.752;4.268;2022-08-03T05:29:17;24.20;99.90
25482;DHT22;13395;50.752;4.268;2022-08-03T05:31:43;24.80;99.90
25482;DHT22;13395;50.752;4.268;2022-08-03T05:34:08;25.50;99.90
25482;DHT22;13395;50.752;4.268;2022-08-03T05:36:34;25.20;99.90
25482;DHT22;13395;50.752;4.268;2022-08-03T05:39:00;24.60;99.90
25482;DHT22;13395;50.752;4.268;2022-08-03T05:41:25;24.20;99.90
25482;DHT22;13395;50.752;4.268;2022-08-03T05:43:52;24.20;99.90
25482;DHT22;13395;50.752;4.268;2022-08-03T05:46:18;24.60;99.90
25482;DHT22;13395;50.752;4.268;2022-08-03T05:48:45;25.10;99.90
25482;DHT22;13395;50.752;4.268;2022-08-03T05:51:11;25.50;99.90
25482;DHT22;13395;50.752;4.268;2022-08-03T05:53:39;25.50;99.90
25482;DHT22;13395;50.752;4.268;2022-08-03T05:56:05;25.10;99.90
25482;DHT22;13395;50.752;4.268;2022-08-03T05:58:31;24.60;99.90
25482;DHT22;13395;50.752;4.268;2022-08-03T06:00:56;24.20;99.90
25482;DHT22;13395;50.752;4.268;2022-08-03T06:03:22;23.80;99.90
25482;DHT22;13395;50.752;4.268;2022-08-03T06:05:47;23.40;99.90
25482;DHT22;13395;50.752;4.268;2022-08-03T06:08:13;23.20;99.90
25482;DHT22;13395;50.752;4.268;2022-08-03T06:10:38;22.90;99.90
25482;DHT22;13395;50.752;4.268;2022-08-03T06:13:04;22.70;99.90
25482;DHT22;13395;50.752;4.268;2022-08-03T06:15:30;22.60;99.90
25482;DHT22;13395;50.752;4.268;2022-08-03T06:17:58;22.40;99.90
25482;DHT22;13395;50.752;4.268;2022-08-03T06:20:24;22.30;99.90
25482;DHT22;13395;50.752;4.268;2022-08-03T06:22:50;22.30;99.90
25482;DHT22;13395;50.752;4.268;2022-08-03T06:25:15;22.20;99.90
25482;DHT22;13395;50.752;4.268;2022-08-03T06:27:41;22.20;99.90
25482;DHT22;13395;50.752;4.268;2022-08-03T06:30:08;22.40;99.90
25482;DHT22;13395;50.752;4.268;2022-08-03T06:32:38;22.40;99.90
25482;DHT22;13395;50.752;4.268;2022-08-03T06:35:05;22.40;99.90
25482;DHT22;13395;50.752;4.268;2022-08-03T06:37:41;22.50;99.90
25482;DHT22;13395;50.752;4.268;2022-08-03T06:40:08;22.50;99.90
25482;DHT22;13395;50.752;4.268;2022-08-03T06:42:34;22.70;99.90
25482;DHT22;13395;50.752;4.268;2022-08-03T06:45:00;22.70;99.90
25482;DHT22;13395;50.752;4.268;2022-08-03T06:47:25;22.60;99.90
25482;DHT22;13395;50.752;4.268;2022-08-03T06:49:51;22.70;99.90
25482;DHT22;13395;50.752;4.268;2022-08-03T06:52:16;23.20;99.90
25482;DHT22;13395;50.752;4.268;2022-08-03T06:54:42;23.90;99.90
25482;DHT22;13395;50.752;4.268;2022-08-03T06:57:08;24.60;99.90
25482;DHT22;13395;50.752;4.268;2022-08-03T06:59:36;24.90;99.90
25482;DHT22;13395;50.752;4.268;2022-08-03T07:02:01;25.30;99.90
25482;DHT22;13395;50.752;4.268;2022-08-03T07:04:27;26.20;99.90
25482;DHT22;13395;50.752;4.268;2022-08-03T07:06:53;27.50;99.90
25482;DHT22;13395;50.752;4.268;2022-08-03T07:09:19;29.20;99.80
25482;DHT22;13395;50.752;4.268;2022-08-03T07:11:45;31.00;94.90
25482;DHT22;13395;50.752;4.268;2022-08-03T07:14:10;32.50;92.30
25482;DHT22;13395;50.752;4.268;2022-08-03T07:16:36;33.20;84.60
25482;DHT22;13395;50.752;4.268;2022-08-03T07:19:01;34.00;81.70
25482;DHT22;13395;50.752;4.268;2022-08-03T07:21:27;34.60;77.50
25482;DHT22;13395;50.752;4.268;2022-08-03T07:23:53;35.70;76.70
25482;DHT22;13395;50.752;4.268;2022-08-03T07:26:18;36.10;72.30
25482;DHT22;13395;50.752;4.268;2022-08-03T07:28:44;36.90;71.20
25482;DHT22;13395;50.752;4.268;2022-08-03T07:31:10;37.30;68.90
25482;DHT22;13395;50.752;4.268;2022-08-03T07:33:35;37.50;64.40
25482;DHT22;13395;50.752;4.268;2022-08-03T07:36:01;37.30;63.60
25482;DHT22;13395;50.752;4.268;2022-08-03T07:38:26;37.50;63.90
25482;DHT22;13395;50.752;4.268;2022-08-03T07:40:52;37.50;63.80
25482;DHT22;13395;50.752;4.268;2022-08-03T07:43:18;37.90;63.00
25482;DHT22;13395;50.752;4.268;2022-08-03T07:45:44;38.40;61.00
25482;DHT22;13395;50.752;4.268;2022-08-03T07:48:10;39.00;61.90
25482;DHT22;13395;50.752;4.268;2022-08-03T07:50:35;39.50;58.60
25482;DHT22;13395;50.752;4.268;2022-08-03T07:53:01;40.20;56.50
25482;DHT22;13395;50.752;4.268;2022-08-03T07:55:27;40.20;55.50
25482;DHT22;13395;50.752;4.268;2022-08-03T07:58:11;40.10;55.20
25482;DHT22;13395;50.752;4.268;2022-08-03T08:00:40;40.20;54.10
25482;DHT22;13395;50.752;4.268;2022-08-03T08:03:07;40.30;53.90
25482;DHT22;13395;50.752;4.268;2022-08-03T08:05:33;40.40;54.40
25482;DHT22;13395;50.752;4.268;2022-08-03T08:08:00;40.90;53.90
25482;DHT22;13395;50.752;4.268;2022-08-03T08:10:26;40.30;53.00
25482;DHT22;13395;50.752;4.268;2022-08-03T08:12:52;40.10;52.10
25482;DHT22;13395;50.752;4.268;2022-08-03T08:15:18;40.40;54.20
25482;DHT22;13395;50.752;4.268;2022-08-03T08:20:15;42.10;50.30
25482;DHT22;13395;50.752;4.268;2022-08-03T08:22:41;42.50;50.30
25482;DHT22;13395;50.752;4.268;2022-08-03T08:25:07;42.50;49.60
25482;DHT22;13395;50.752;4.268;2022-08-03T08:27:33;42.40;52.40
25482;DHT22;13395;50.752;4.268;2022-08-03T08:30:05;42.40;49.20
25482;DHT22;13395;50.752;4.268;2022-08-03T08:32:31;42.30;47.90
25482;DHT22;13395;50.752;4.268;2022-08-03T08:34:57;41.70;47.50
25482;DHT22;13395;50.752;4.268;2022-08-03T08:37:22;41.40;49.20
25482;DHT22;13395;50.752;4.268;2022-08-03T08:39:48;41.80;49.70
25482;DHT22;13395;50.752;4.268;2022-08-03T08:42:14;42.20;48.90
25482;DHT22;13395;50.752;4.268;2022-08-03T08:44:40;42.60;47.30
25482;DHT22;13395;50.752;4.268;2022-08-03T08:47:07;42.20;46.70
25482;DHT22;13395;50.752;4.268;2022-08-03T08:49:34;42.40;47.60
25482;DHT22;13395;50.752;4.268;2022-08-03T08:52:02;42.50;47.20
25482;DHT22;13395;50.752;4.268;2022-08-03T08:54:30;43.60;46.90
25482;DHT22;13395;50.752;4.268;2022-08-03T08:57:01;43.70;46.60
25482;DHT22;13395;50.752;4.268;2022-08-03T08:59:32;43.80;45.70
25482;DHT22;13395;50.752;4.268;2022-08-03T09:01:59;44.60;44.20
25482;DHT22;13395;50.752;4.268;2022-08-03T09:04:29;45.00;43.60
25482;DHT22;13395;50.752;4.268;2022-08-03T09:06:55;44.30;42.80
25482;DHT22;13395;50.752;4.268;2022-08-03T09:09:21;44.90;42.30
25482;DHT22;13395;50.752;4.268;2022-08-03T09:11:47;45.10;41.60
25482;DHT22;13395;50.752;4.268;2022-08-03T09:14:13;44.50;41.50
25482;DHT22;13395;50.752;4.268;2022-08-03T09:16:55;45.10;41.80
25482;DHT22;13395;50.752;4.268;2022-08-03T09:19:23;45.30;41.70
25482;DHT22;13395;50.752;4.268;2022-08-03T09:22:12;45.10;40.40
25482;DHT22;13395;50.752;4.268;2022-08-03T09:25:05;45.60;42.40
25482;DHT22;13395;50.752;4.268;2022-08-03T09:27:43;45.50;40.70
25482;DHT22;13395;50.752;4.268;2022-08-03T09:30:14;45.50;40.40
25482;DHT22;13395;50.752;4.268;2022-08-03T09:32:40;45.30;39.80
25482;DHT22;13395;50.752;4.268;2022-08-03T09:35:06;45.40;40.20
25482;DHT22;13395;50.752;4.268;2022-08-03T09:37:33;45.80;39.60
25482;DHT22;13395;50.752;4.268;2022-08-03T09:39:58;45.60;39.70
25482;DHT22;13395;50.752;4.268;2022-08-03T09:42:24;45.30;41.20
25482;DHT22;13395;50.752;4.268;2022-08-03T09:44:52;45.40;40.60
25482;DHT22;13395;50.752;4.268;2022-08-03T09:47:28;44.90;41.00
25482;DHT22;13395;50.752;4.268;2022-08-03T09:50:06;45.30;40.90
25482;DHT22;13395;50.752;4.268;2022-08-03T09:52:41;45.90;40.30
25482;DHT22;13395;50.752;4.268;2022-08-03T09:55:09;45.90;39.40
25482;DHT22;13395;50.752;4.268;2022-08-03T09:57:35;45.10;39.80
25482;DHT22;13395;50.752;4.268;2022-08-03T10:00:09;45.60;41.00
25482;DHT22;13395;50.752;4.268;2022-08-03T10:02:36;46.50;39.40
25482;DHT22;13395;50.752;4.268;2022-08-03T10:05:03;47.30;38.90
25482;DHT22;13395;50.752;4.268;2022-08-03T10:07:29;47.20;38.10
25482;DHT22;13395;50.752;4.268;2022-08-03T10:09:57;46.50;38.60
25482;DHT22;13395;50.752;4.268;2022-08-03T10:12:24;46.50;38.90
25482;DHT22;13395;50.752;4.268;2022-08-03T10:14:50;46.90;37.80
25482;DHT22;13395;50.752;4.268;2022-08-03T10:17:16;47.20;39.30
25482;DHT22;13395;50.752;4.268;2022-08-03T10:19:42;47.30;38.50
25482;DHT22;13395;50.752;4.268;2022-08-03T10:22:13;47.00;37.70
25482;DHT22;13395;50.752;4.268;2022-08-03T10:24:48;47.20;39.10
25482;DHT22;13395;50.752;4.268;2022-08-03T10:27:18;47.50;38.20
25482;DHT22;13395;50.752;4.268;2022-08-03T10:29:48;47.20;37.80
25482;DHT22;13395;50.752;4.268;2022-08-03T10:32:49;47.20;37.40
25482;DHT22;13395;50.752;4.268;2022-08-03T10:35:22;47.50;38.20
25482;DHT22;13395;50.752;4.268;2022-08-03T10:38:00;47.20;38.10
25482;DHT22;13395;50.752;4.268;2022-08-03T10:40:30;47.40;37.40
25482;DHT22;13395;50.752;4.268;2022-08-03T10:43:00;46.40;37.70
25482;DHT22;13395;50.752;4.268;2022-08-03T10:45:28;46.40;38.50
25482;DHT22;13395;50.752;4.268;2022-08-03T10:47:56;46.30;37.80
25482;DHT22;13395;50.752;4.268;2022-08-03T10:50:23;45.10;38.20
25482;DHT22;13395;50.752;4.268;2022-08-03T10:52:56;44.60;39.50
25482;DHT22;13395;50.752;4.268;2022-08-03T10:55:49;45.20;38.70
25482;DHT22;13395;50.752;4.268;2022-08-03T11:01:06;46.30;37.90
25482;DHT22;13395;50.752;4.268;2022-08-03T11:03:32;46.30;38.10
25482;DHT22;13395;50.752;4.268;2022-08-03T11:06:16;46.30;37.10
25482;DHT22;13395;50.752;4.268;2022-08-03T11:08:44;47.00;36.60
25482;DHT22;13395;50.752;4.268;2022-08-03T11:16:25;47.20;36.40
25482;DHT22;13395;50.752;4.268;2022-08-03T11:18:59;47.00;35.60
25482;DHT22;13395;50.752;4.268;2022-08-03T11:27:20;47.20;35.20
25482;DHT22;13395;50.752;4.268;2022-08-03T11:30:08;47.10;36.00
25482;DHT22;13395;50.752;4.268;2022-08-03T11:35:11;46.50;36.50
25482;DHT22;13395;50.752;4.268;2022-08-03T11:43:09;46.50;35.90
25482;DHT22;13395;50.752;4.268;2022-08-03T11:46:03;46.30;35.70
25482;DHT22;13395;50.752;4.268;2022-08-03T11:51:02;46.70;35.20
25482;DHT22;13395;50.752;4.268;2022-08-03T11:53:28;46.80;35.30
25482;DHT22;13395;50.752;4.268;2022-08-03T11:55:58;47.20;35.20
25482;DHT22;13395;50.752;4.268;2022-08-03T11:58:24;47.20;35.20
25482;DHT22;13395;50.752;4.268;2022-08-03T12:00:50;47.30;35.00
25482;DHT22;13395;50.752;4.268;2022-08-03T12:03:18;47.20;35.00
25482;DHT22;13395;50.752;4.268;2022-08-03T12:05:52;47.20;34.80
25482;DHT22;13395;50.752;4.268;2022-08-03T12:08:38;47.10;35.70
25482;DHT22;13395;50.752;4.268;2022-08-03T12:11:05;46.80;37.30
25482;DHT22;13395;50.752;4.268;2022-08-03T12:13:40;47.50;35.30
25482;DHT22;13395;50.752;4.268;2022-08-03T12:16:06;47.70;35.30
25482;DHT22;13395;50.752;4.268;2022-08-03T12:18:32;47.80;34.90
25482;DHT22;13395;50.752;4.268;2022-08-03T12:21:09;47.50;34.90
25482;DHT22;13395;50.752;4.268;2022-08-03T12:23:35;47.80;35.10
25482;DHT22;13395;50.752;4.268;2022-08-03T12:26:07;47.10;34.90
25482;DHT22;13395;50.752;4.268;2022-08-03T12:28:34;46.60;34.70
25482;DHT22;13395;50.752;4.268;2022-08-03T12:31:04;46.40;35.40
25482;DHT22;13395;50.752;4.268;2022-08-03T12:33:31;47.00;36.50
25482;DHT22;13395;50.752;4.268;2022-08-03T12:36:06;47.10;35.20
25482;DHT22;13395;50.752;4.268;2022-08-03T12:38:33;47.30;35.40
25482;DHT22;13395;50.752;4.268;2022-08-03T12:41:02;46.60;34.80
25482;DHT22;13395;50.752;4.268;2022-08-03T12:43:28;46.60;35.20
25482;DHT22;13395;50.752;4.268;2022-08-03T12:46:11;46.90;35.30
25482;DHT22;13395;50.752;4.268;2022-08-03T12:49:06;47.10;35.10
25482;DHT22;13395;50.752;4.268;2022-08-03T12:51:55;46.00;35.30
25482;DHT22;13395;50.752;4.268;2022-08-03T12:54:27;45.40;37.00
25482;DHT22;13395;50.752;4.268;2022-08-03T12:56:58;46.10;35.50
25482;DHT22;13395;50.752;4.268;2022-08-03T12:59:25;46.20;34.60
25482;DHT22;13395;50.752;4.268;2022-08-03T13:01:52;45.30;35.40
25482;DHT22;13395;50.752;4.268;2022-08-03T13:04:31;45.10;37.20
25482;DHT22;13395;50.752;4.268;2022-08-03T13:07:01;45.80;35.60
25482;DHT22;13395;50.752;4.268;2022-08-03T13:09:29;44.70;37.70
25482;DHT22;13395;50.752;4.268;2022-08-03T13:12:29;44.60;37.50
25482;DHT22;13395;50.752;4.268;2022-08-03T13:14:57;43.90;36.80
25482;DHT22;13395;50.752;4.268;2022-08-03T13:17:24;43.00;38.00
25482;DHT22;13395;50.752;4.268;2022-08-03T13:19:50;42.80;39.60
25482;DHT22;13395;50.752;4.268;2022-08-03T13:22:22;42.50;39.30
25482;DHT22;13395;50.752;4.268;2022-08-03T13:24:50;42.20;39.80
25482;DHT22;13395;50.752;4.268;2022-08-03T13:27:16;41.50;39.40
25482;DHT22;13395;50.752;4.268;2022-08-03T13:29:42;40.40;41.20
25482;DHT22;13395;50.752;4.268;2022-08-03T13:32:09;39.80;42.30
25482;DHT22;13395;50.752;4.268;2022-08-03T13:34:35;39.20;43.60
25482;DHT22;13395;50.752;4.268;2022-08-03T13:37:00;39.00;43.00
25482;DHT22;13395;50.752;4.268;2022-08-03T13:39:26;39.00;44.00
25482;DHT22;13395;50.752;4.268;2022-08-03T13:41:52;38.60;44.20
25482;DHT22;13395;50.752;4.268;2022-08-03T13:44:18;38.10;44.40
25482;DHT22;13395;50.752;4.268;2022-08-03T13:46:44;38.00;44.50
25482;DHT22;13395;50.752;4.268;2022-08-03T13:49:10;38.50;45.90
25482;DHT22;13395;50.752;4.268;2022-08-03T13:51:36;39.00;44.40
25482;DHT22;13395;50.752;4.268;2022-08-03T13:54:01;39.20;43.80
25482;DHT22;13395;50.752;4.268;2022-08-03T13:56:29;38.50;43.50
25482;DHT22;13395;50.752;4.268;2022-08-03T13:58:55;38.40;44.90
25482;DHT22;13395;50.752;4.268;2022-08-03T14:01:21;38.10;44.30
25482;DHT22;13395;50.752;4.268;2022-08-03T14:03:47;37.60;44.60
25482;DHT22;13395;50.752;4.268;2022-08-03T14:06:17;37.40;45.80
25482;DHT22;13395;50.752;4.268;2022-08-03T14:08:43;37.60;46.30
25482;DHT22;13395;50.752;4.268;2022-08-03T14:11:09;37.80;45.90
25482;DHT22;13395;50.752;4.268;2022-08-03T14:13:35;37.90;45.00
25482;DHT22;13395;50.752;4.268;2022-08-03T14:16:01;38.10;44.70
25482;DHT22;13395;50.752;4.268;2022-08-03T14:18:26;38.50;45.30
25482;DHT22;13395;50.752;4.268;2022-08-03T14:20:52;38.60;44.30
25482;DHT22;13395;50.752;4.268;2022-08-03T14:23:17;38.70;44.50
25482;DHT22;13395;50.752;4.268;2022-08-03T14:25:43;38.70;45.50
25482;DHT22;13395;50.752;4.268;2022-08-03T14:28:09;38.60;44.70
25482;DHT22;13395;50.752;4.268;2022-08-03T14:30:35;38.30;44.90
25482;DHT22;13395;50.752;4.268;2022-08-03T14:33:00;37.90;44.60
25482;DHT22;13395;50.752;4.268;2022-08-03T14:35:26;37.90;45.60
25482;DHT22;13395;50.752;4.268;2022-08-03T14:37:52;38.00;46.60
25482;DHT22;13395;50.752;4.268;2022-08-03T14:40:18;37.70;44.40
25482;DHT22;13395;50.752;4.268;2022-08-03T14:42:44;37.60;45.20
25482;DHT22;13395;50.752;4.268;2022-08-03T14:45:10;37.40;45.50
25482;DHT22;13395;50.752;4.268;2022-08-03T14:47:37;37.40;46.70
25482;DHT22;13395;50.752;4.268;2022-08-03T14:50:03;37.60;45.40
25482;DHT22;13395;50.752;4.268;2022-08-03T14:52:30;37.70;44.80
25482;DHT22;13395;50.752;4.268;2022-08-03T14:54:57;37.30;45.50
25482;DHT22;13395;50.752;4.268;2022-08-03T14:57:23;37.60;45.20
25482;DHT22;13395;50.752;4.268;2022-08-03T14:59:49;37.50;45.70
25482;DHT22;13395;50.752;4.268;2022-08-03T15:02:15;37.20;45.20
25482;DHT22;13395;50.752;4.268;2022-08-03T15:04:41;37.00;45.90
25482;DHT22;13395;50.752;4.268;2022-08-03T15:07:06;36.90;46.60
25482;DHT22;13395;50.752;4.268;2022-08-03T15:09:32;36.60;47.20
25482;DHT22;13395;50.752;4.268;2022-08-03T15:11:58;36.50;47.20
25482;DHT22;13395;50.752;4.268;2022-08-03T15:14:24;36.50;47.00
25482;DHT22;13395;50.752;4.268;2022-08-03T15:16:51;36.30;47.60
25482;DHT22;13395;50.752;4.268;2022-08-03T15:19:16;36.20;47.80
25482;DHT22;13395;50.752;4.268;2022-08-03T15:21:42;36.20;49.00
25482;DHT22;13395;50.752;4.268;2022-08-03T15:24:08;36.20;48.20
25482;DHT22;13395;50.752;4.268;2022-08-03T15:26:33;36.20;48.10
25482;DHT22;13395;50.752;4.268;2022-08-03T15:28:59;36.20;47.60
25482;DHT22;13395;50.752;4.268;2022-08-03T15:31:25;36.10;47.70
25482;DHT22;13395;50.752;4.268;2022-08-03T15:33:50;35.80;49.00
25482;DHT22;13395;50.752;4.268;2022-08-03T15:36:19;35.90;49.10
25482;DHT22;13395;50.752;4.268;2022-08-03T15:38:46;36.00;49.50
25482;DHT22;13395;50.752;4.268;2022-08-03T15:41:13;36.10;50.40
25482;DHT22;13395;50.752;4.268;2022-08-03T15:43:39;36.00;49.50
25482;DHT22;13395;50.752;4.268;2022-08-03T15:46:05;36.00;48.90
25482;DHT22;13395;50.752;4.268;2022-08-03T15:48:31;35.90;49.10
25482;DHT22;13395;50.752;4.268;2022-08-03T15:50:56;35.70;48.90
25482;DHT22;13395;50.752;4.268;2022-08-03T15:53:22;35.30;49.80
25482;DHT22;13395;50.752;4.268;2022-08-03T15:55:48;35.30;49.70
25482;DHT22;13395;50.752;4.268;2022-08-03T15:58:13;35.30;49.70
25482;DHT22;13395;50.752;4.268;2022-08-03T16:00:40;35.30;49.70
25482;DHT22;13395;50.752;4.268;2022-08-03T16:03:07;35.50;49.10
25482;DHT22;13395;50.752;4.268;2022-08-03T16:05:33;35.60;48.80
25482;DHT22;13395;50.752;4.268;2022-08-03T16:07:59;35.60;50.10
25482;DHT22;13395;50.752;4.268;2022-08-03T16:10:24;35.70;50.10
25482;DHT22;13395;50.752;4.268;2022-08-03T16:12:53;35.80;49.30
25482;DHT22;13395;50.752;4.268;2022-08-03T16:15:18;35.90;49.10